Time;durP1;ratioP1;P1;durP2;ratioP2;P2;SDS_P1;SDS_P2;PMS_P1;PMS_P2;Temp;Humidity;BMP_temperature;BMP_pressure;BME280_temperature;BME280_humidity;BME280_pressure;Samples;Min_cycle;Max_cycle;Signal;HPM_P1;HPM_P2
2021/06/08 00:00:21;;;;;;;17.83;16.03;;;17.90;99.90;;;;;;5093033;28;20189;-66
2021/06/08 00:02:50;;;;;;;16.93;14.83;;;17.80;99.90;;;;;;5094363;28;20177;-66
2021/06/08 00:05:16;;;;;;;16.13;14.53;;;17.70;99.90;;;;;;5072921;28;20198;-66
2021/06/08 00:07:42;;;;;;;16.47;14.87;;;17.60;99.90;;;;;;5073476;28;20182;-65
2021/06/08 00:10:08;;;;;;;17.40;14.73;;;17.70;99.90;;;;;;5113083;28;20236;-66
2021/06/08 00:12:33;;;;;;;16.87;15.10;;;17.60;99.90;;;;;;5113319;28;20204;-66
2021/06/08 00:14:59;;;;;;;16.47;14.77;;;17.60;99.90;;;;;;5094549;28;20307;-65
2021/06/08 00:17:25;;;;;;;16.23;14.53;;;17.70;99.90;;;;;;5092911;28;20530;-66
2021/06/08 00:19:51;;;;;;;16.70;14.97;;;17.70;99.90;;;;;;5109450;28;20671;-66
2021/06/08 00:22:16;;;;;;;17.00;15.30;;;17.60;99.90;;;;;;5108983;28;21383;-65
2021/06/08 00:24:42;;;;;;;17.03;15.33;;;17.50;99.90;;;;;;5093040;28;20686;-66
2021/06/08 00:27:08;;;;;;;16.50;14.90;;;17.40;99.90;;;;;;5094206;28;20169;-66
2021/06/08 00:29:34;;;;;;;17.03;14.03;;;17.50;99.90;;;;;;5098304;28;20188;-66
2021/06/08 00:31:59;;;;;;;16.40;14.80;;;17.60;99.90;;;;;;5092206;28;20197;-67
2021/06/08 00:34:25;;;;;;;17.33;14.97;;;17.70;99.90;;;;;;5112553;28;20240;-65
2021/06/08 00:36:50;;;;;;;18.87;14.93;;;17.70;99.90;;;;;;5113173;28;20176;-66
2021/06/08 00:39:16;;;;;;;17.40;14.70;;;17.70;99.90;;;;;;5094274;28;20192;-66
2021/06/08 00:41:44;;;;;;;17.07;15.37;;;17.70;99.90;;;;;;5092299;28;20187;-66
2021/06/08 00:44:13;;;;;;;18.47;16.67;;;17.60;99.90;;;;;;5109151;28;20253;-66
2021/06/08 00:46:43;;;;;;;17.87;15.20;;;17.50;99.90;;;;;;5113023;28;20180;-66
2021/06/08 00:49:08;;;;;;;17.13;15.37;;;17.50;99.90;;;;;;5096403;28;20582;-66
2021/06/08 00:51:34;;;;;;;19.50;15.97;;;17.50;99.90;;;;;;5092006;28;20200;-66
2021/06/08 00:54:05;;;;;;;17.47;15.63;;;17.50;99.90;;;;;;5106495;28;20261;-66
2021/06/08 00:56:35;;;;;;;19.47;17.40;;;17.50;99.90;;;;;;5112657;28;20173;-65
2021/06/08 00:59:01;;;;;;;19.10;16.77;;;17.50;99.90;;;;;;5106367;28;20180;-66
2021/06/08 01:01:27;;;;;;;18.57;16.67;;;17.50;99.90;;;;;;5112420;28;20176;-66
2021/06/08 01:03:53;;;;;;;17.43;15.67;;;17.40;99.90;;;;;;5098913;28;20177;-66
2021/06/08 01:06:19;;;;;;;19.30;16.90;;;17.50;99.90;;;;;;5092083;28;20165;-65
2021/06/08 01:08:45;;;;;;;17.10;15.30;;;17.50;99.90;;;;;;5102696;28;20584;-66
2021/06/08 01:11:10;;;;;;;18.83;16.83;;;17.60;99.90;;;;;;5112078;28;20173;-67
2021/06/08 01:13:36;;;;;;;19.73;17.47;;;17.60;99.90;;;;;;5103230;28;20185;-66
2021/06/08 01:16:02;;;;;;;18.40;16.13;;;17.70;99.90;;;;;;5092034;28;20242;-66
2021/06/08 01:18:28;;;;;;;20.10;16.83;;;17.70;99.90;;;;;;5098901;28;20634;-66
2021/06/08 01:21:03;;;;;;;18.43;16.50;;;17.70;99.90;;;;;;5112050;28;20165;-66
2021/06/08 01:23:29;;;;;;;20.73;18.53;;;17.60;99.90;;;;;;5093447;28;20246;-66
2021/06/08 01:25:56;;;;;;;17.80;15.87;;;17.60;99.90;;;;;;5091809;28;20201;-65
2021/06/08 01:28:23;;;;;;;17.87;15.97;;;17.60;99.90;;;;;;5107545;28;20538;-65
2021/06/08 01:30:51;;;;;;;18.60;16.70;;;17.60;99.90;;;;;;5111846;28;20181;-66
2021/06/08 01:33:18;;;;;;;18.90;16.83;;;17.60;99.90;;;;;;5096150;28;20317;-66
2021/06/08 01:35:45;;;;;;;19.13;17.13;;;17.50;99.90;;;;;;5091597;28;20265;-66
2021/06/08 01:38:12;;;;;;;19.90;17.77;;;17.40;99.90;;;;;;5105463;28;20185;-65
2021/06/08 01:40:40;;;;;;;20.83;17.43;;;17.40;99.90;;;;;;5111777;28;20539;-66
2021/06/08 01:43:05;;;;;;;21.63;19.13;;;17.30;99.90;;;;;;5110541;28;20642;-66
2021/06/08 01:45:31;;;;;;;23.63;18.60;;;17.30;99.90;;;;;;5111806;28;20196;-66
2021/06/08 01:47:57;;;;;;;20.77;18.57;;;17.40;99.90;;;;;;5098596;28;20685;-66
2021/06/08 01:50:22;;;;;;;19.90;17.87;;;17.30;99.90;;;;;;5091281;28;20173;-66
2021/06/08 01:52:54;;;;;;;22.47;18.40;;;17.40;99.90;;;;;;5102547;28;20204;-66
2021/06/08 01:55:35;;;;;;;20.67;18.37;;;17.40;99.90;;;;;;5111724;28;20275;-66
2021/06/08 01:58:14;;;;;;;22.33;19.03;;;17.30;99.90;;;;;;5099248;28;20177;-66
2021/06/08 02:00:50;;;;;;;22.60;20.20;;;17.30;99.90;;;;;;5073004;28;20178;-66
2021/06/08 02:04:13;;;;;;;23.07;19.13;;;17.40;99.90;;;;;;5105294;28;20758;-66
2021/06/08 02:06:42;;;;;;;22.23;18.67;;;17.30;99.90;;;;;;5091972;28;20188;-65
2021/06/08 02:09:18;;;;;;;21.83;18.03;;;17.30;99.90;;;;;;5071259;28;20725;-66
2021/06/08 02:12:07;;;;;;;22.97;19.20;;;17.30;99.90;;;;;;5071335;28;20288;-65
2021/06/08 02:14:56;;;;;;;20.90;18.70;;;17.20;99.90;;;;;;5069890;28;20665;-66
2021/06/08 02:17:30;;;;;;;21.20;18.03;;;17.10;99.90;;;;;;5067172;28;20519;-66
2021/06/08 02:20:02;;;;;;;22.73;19.03;;;17.10;99.90;;;;;;5115558;28;20176;-66
2021/06/08 02:22:29;;;;;;;22.37;19.97;;;17.00;99.90;;;;;;5110404;28;20185;-66
2021/06/08 02:24:55;;;;;;;21.40;19.10;;;17.00;99.90;;;;;;5095239;28;20201;-66
2021/06/08 02:27:24;;;;;;;23.07;18.60;;;16.90;99.90;;;;;;5097135;28;20260;-66
2021/06/08 02:29:52;;;;;;;24.60;20.40;;;17.00;99.90;;;;;;5115284;28;20169;-66
2021/06/08 02:32:19;;;;;;;23.53;19.30;;;16.90;99.90;;;;;;5112488;28;20345;-66
2021/06/08 02:34:45;;;;;;;26.73;21.07;;;16.80;99.90;;;;;;5095085;28;20566;-66
2021/06/08 02:37:13;;;;;;;22.23;19.63;;;16.80;99.90;;;;;;5096017;28;20633;-67
2021/06/08 02:39:41;;;;;;;25.53;20.57;;;16.70;99.90;;;;;;5115338;28;20172;-66
2021/06/08 02:42:09;;;;;;;24.17;19.60;;;16.60;99.90;;;;;;5114732;28;20645;-65
2021/06/08 02:44:35;;;;;;;23.47;20.43;;;16.50;99.90;;;;;;5056521;28;20671;-66
2021/06/08 02:47:02;;;;;;;24.53;20.30;;;16.50;99.90;;;;;;5074769;28;20182;-66
2021/06/08 02:49:28;;;;;;;24.77;19.70;;;16.50;99.90;;;;;;5097555;28;20185;-66
2021/06/08 02:51:54;;;;;;;27.70;21.93;;;16.30;99.90;;;;;;5094387;28;20201;-66
2021/06/08 02:54:21;;;;;;;23.37;20.60;;;16.20;99.90;;;;;;5111740;28;20669;-66
2021/06/08 02:56:48;;;;;;;27.67;21.00;;;16.20;99.90;;;;;;5115076;28;20169;-66
2021/06/08 02:59:14;;;;;;;28.23;21.70;;;16.10;99.90;;;;;;5098728;28;20522;-66
2021/06/08 03:01:48;;;;;;;28.37;19.80;;;16.00;99.90;;;;;;5107523;28;20702;-66
2021/06/08 03:04:16;;;;;;;24.13;20.57;;;16.00;99.90;;;;;;5114961;28;20537;-65
2021/06/08 03:06:51;;;;;;;27.07;21.10;;;16.00;99.90;;;;;;5083571;28;20639;-65
2021/06/08 03:09:19;;;;;;;25.70;21.10;;;16.00;99.90;;;;;;5094432;28;20251;-65
2021/06/08 03:11:52;;;;;;;26.20;21.50;;;15.90;99.90;;;;;;5106797;28;20214;-64
2021/06/08 03:14:20;;;;;;;26.50;21.10;;;15.90;99.90;;;;;;5114370;28;20220;-65
2021/06/08 03:17:00;;;;;;;26.57;21.23;;;16.00;99.90;;;;;;5101832;28;20258;-65
2021/06/08 03:19:30;;;;;;;25.17;20.97;;;15.90;99.90;;;;;;5094156;28;20261;-65
2021/06/08 03:22:01;;;;;;;25.20;21.63;;;15.90;99.90;;;;;;5098703;28;20182;-65
2021/06/08 03:24:31;;;;;;;26.10;21.77;;;15.80;99.90;;;;;;5094395;28;20739;-65
2021/06/08 03:26:58;;;;;;;28.47;21.37;;;15.90;99.90;;;;;;5110857;28;20189;-65
2021/06/08 03:29:25;;;;;;;27.67;21.63;;;15.90;99.90;;;;;;5114397;28;20197;-65
2021/06/08 03:31:51;;;;;;;29.57;22.10;;;15.80;99.90;;;;;;5096925;28;20262;-64
2021/06/08 03:34:18;;;;;;;26.13;21.40;;;15.90;99.90;;;;;;5093487;28;20197;-64
2021/06/08 03:36:47;;;;;;;27.63;22.90;;;15.80;99.90;;;;;;5108977;28;20234;-64
2021/06/08 03:39:14;;;;;;;24.33;19.97;;;15.90;99.90;;;;;;5114170;28;20197;-65
2021/06/08 03:41:41;;;;;;;27.13;21.77;;;15.90;99.90;;;;;;5099528;28;20181;-65
2021/06/08 03:44:07;;;;;;;27.33;21.43;;;16.00;99.90;;;;;;5093577;28;20193;-65
2021/06/08 03:46:35;;;;;;;29.07;20.73;;;16.10;99.90;;;;;;5105892;28;20192;-65
2021/06/08 03:49:01;;;;;;;22.80;20.37;;;16.10;99.90;;;;;;5114012;28;20169;-65
2021/06/08 03:51:31;;;;;;;25.60;21.77;;;16.20;99.90;;;;;;5102149;28;20242;-65
2021/06/08 03:54:00;;;;;;;23.97;19.80;;;16.30;99.90;;;;;;5093517;28;20173;-65
2021/06/08 03:56:28;;;;;;;24.00;20.10;;;16.30;99.90;;;;;;5103744;28;20352;-65
2021/06/08 03:58:55;;;;;;;26.33;19.40;;;16.30;99.90;;;;;;5113009;28;20161;-65
2021/06/08 04:01:23;;;;;;;24.53;20.60;;;16.20;99.90;;;;;;5104166;28;20188;-65
2021/06/08 04:03:50;;;;;;;24.17;20.53;;;16.20;99.90;;;;;;5093327;28;20226;-64
2021/06/08 04:06:19;;;;;;;25.73;19.23;;;16.20;99.90;;;;;;5100939;28;20180;-65
2021/06/08 04:08:45;;;;;;;23.87;18.10;;;16.20;99.90;;;;;;5113681;28;20179;-65
2021/06/08 04:11:11;;;;;;;23.40;19.57;;;16.20;99.90;;;;;;5106257;28;20242;-64
2021/06/08 04:13:41;;;;;;;21.70;19.47;;;16.30;99.90;;;;;;5074873;28;20213;-65
2021/06/08 04:16:10;;;;;;;23.50;18.00;;;16.30;99.90;;;;;;5098241;28;20205;-65
2021/06/08 04:18:37;;;;;;;23.90;19.73;;;16.30;99.90;;;;;;5113457;28;20169;-65
2021/06/08 04:21:03;;;;;;;20.63;17.43;;;16.50;99.90;;;;;;5108460;28;20467;-64
2021/06/08 04:23:30;;;;;;;20.80;18.53;;;16.60;99.90;;;;;;5093144;28;20169;-64
2021/06/08 04:25:57;;;;;;;20.13;17.97;;;16.60;99.90;;;;;;5095370;28;20205;-64
2021/06/08 04:28:24;;;;;;;21.73;17.97;;;16.80;99.90;;;;;;5113019;28;20238;-64
2021/06/08 04:30:51;;;;;;;19.77;17.70;;;16.90;99.90;;;;;;5111146;28;20530;-65
2021/06/08 04:33:25;;;;;;;19.43;17.13;;;16.70;99.90;;;;;;5092760;28;20301;-64
2021/06/08 04:35:51;;;;;;;19.40;17.50;;;16.80;99.90;;;;;;5094063;28;20576;-65
2021/06/08 04:38:18;;;;;;;18.83;16.83;;;16.80;99.90;;;;;;5112670;28;20256;-64
2021/06/08 04:40:45;;;;;;;19.73;16.87;;;16.80;99.90;;;;;;5112828;28;20161;-65
2021/06/08 04:43:11;;;;;;;20.23;18.17;;;16.90;99.90;;;;;;5112406;28;20199;-65
2021/06/08 04:45:38;;;;;;;20.20;17.77;;;16.90;99.90;;;;;;5112804;28;20620;-65
2021/06/08 04:48:04;;;;;;;18.10;16.17;;;17.10;99.90;;;;;;5093988;28;20177;-66
2021/06/08 04:50:30;;;;;;;19.07;17.13;;;17.10;99.90;;;;;;5073872;28;20262;-65
2021/06/08 04:52:58;;;;;;;19.97;16.17;;;17.10;99.90;;;;;;5109100;28;20240;-65
2021/06/08 04:55:25;;;;;;;18.67;16.67;;;17.10;99.90;;;;;;5112573;28;20211;-66
2021/06/08 04:57:54;;;;;;;19.10;15.90;;;17.00;99.90;;;;;;5110891;28;20180;-65
2021/06/08 05:00:32;;;;;;;18.27;16.33;;;17.20;99.90;;;;;;5112173;28;20177;-64
2021/06/08 05:03:06;;;;;;;18.60;16.00;;;17.10;99.90;;;;;;5094602;28;20185;-65
2021/06/08 05:05:35;;;;;;;17.73;16.03;;;17.00;99.90;;;;;;5092139;28;20200;-65
2021/06/08 05:08:15;;;;;;;19.17;17.13;;;17.20;99.90;;;;;;5109534;28;20267;-65
2021/06/08 05:10:48;;;;;;;15.97;14.30;;;17.20;99.90;;;;;;5112127;28;20634;-65
2021/06/08 05:13:14;;;;;;;19.90;16.30;;;17.30;99.90;;;;;;5093628;28;20205;-65
2021/06/08 05:15:41;;;;;;;17.33;15.63;;;17.30;99.90;;;;;;5092071;28;20741;-65
2021/06/08 05:18:10;;;;;;;18.10;15.80;;;17.40;99.90;;;;;;5108702;28;20192;-65
2021/06/08 05:20:39;;;;;;;16.53;14.83;;;17.60;99.90;;;;;;5101330;28;20251;-65
2021/06/08 05:23:06;;;;;;;16.87;15.17;;;17.70;99.90;;;;;;5091719;28;20191;-65
2021/06/08 05:25:32;;;;;;;17.03;15.33;;;17.50;99.90;;;;;;5100785;28;20204;-65
2021/06/08 05:28:00;;;;;;;16.67;15.03;;;17.50;99.90;;;;;;5111325;28;20179;-65
2021/06/08 05:30:27;;;;;;;16.70;14.90;;;17.70;99.90;;;;;;5103748;28;20173;-64
2021/06/08 05:32:53;;;;;;;15.87;14.20;;;17.70;99.90;;;;;;5091674;28;20205;-65
2021/06/08 05:35:26;;;;;;;16.40;14.80;;;17.70;99.90;;;;;;5097298;28;20742;-65
2021/06/08 05:37:52;;;;;;;17.77;16.07;;;17.70;99.90;;;;;;5112435;28;20165;-65
2021/06/08 05:40:17;;;;;;;16.50;14.80;;;17.80;99.90;;;;;;5106092;28;20173;-65
2021/06/08 05:42:46;;;;;;;15.63;14.13;;;18.00;99.90;;;;;;5091715;28;20177;-66
2021/06/08 05:45:12;;;;;;;16.87;14.60;;;18.00;99.90;;;;;;5092881;28;20208;-66
2021/06/08 05:47:38;;;;;;;17.47;14.37;;;18.20;99.90;;;;;;5111882;28;20588;-66
2021/06/08 05:50:04;;;;;;;16.43;14.73;;;18.00;99.90;;;;;;5111271;28;20180;-66
2021/06/08 05:52:31;;;;;;;16.03;14.37;;;18.10;99.90;;;;;;5097953;28;20204;-65
2021/06/08 05:54:58;;;;;;;14.70;13.17;;;18.20;99.90;;;;;;5098262;28;20216;-65
2021/06/08 05:57:24;;;;;;;15.93;14.23;;;18.40;99.90;;;;;;5078132;28;20211;-65
2021/06/08 05:59:50;;;;;;;15.67;14.13;;;18.60;99.90;;;;;;5079087;28;20745;-66
2021/06/08 06:02:16;;;;;;;16.40;14.80;;;19.10;99.90;;;;;;5098483;28;20185;-66
2021/06/08 06:04:44;;;;;;;15.90;14.30;;;19.30;99.90;;;;;;5098006;28;20227;-66
2021/06/08 06:07:11;;;;;;;15.20;13.67;;;19.40;99.90;;;;;;5117564;28;20249;-66
2021/06/08 06:09:37;;;;;;;16.27;14.67;;;19.50;99.90;;;;;;5118324;28;20264;-66
2021/06/08 06:12:06;;;;;;;14.83;13.33;;;19.70;99.90;;;;;;5099951;28;20205;-65
2021/06/08 06:14:34;;;;;;;16.77;15.10;;;19.80;99.90;;;;;;5097699;28;20244;-64
2021/06/08 06:17:01;;;;;;;16.40;14.70;;;19.90;99.90;;;;;;5114688;28;20215;-66
2021/06/08 06:19:27;;;;;;;16.17;14.47;;;20.00;99.90;;;;;;5118327;28;20208;-65
2021/06/08 06:21:55;;;;;;;16.50;14.90;;;19.90;99.90;;;;;;5116499;28;20758;-65
2021/06/08 06:24:21;;;;;;;18.23;16.43;;;19.90;99.90;;;;;;5118072;28;20204;-66
2021/06/08 06:26:47;;;;;;;16.47;14.70;;;19.70;99.90;;;;;;5104681;28;20533;-65
2021/06/08 06:29:14;;;;;;;16.60;15.03;;;19.60;99.90;;;;;;5096536;28;20553;-65
2021/06/08 06:31:49;;;;;;;17.27;15.67;;;19.70;99.90;;;;;;5098605;28;20205;-65
2021/06/08 06:34:17;;;;;;;16.60;14.90;;;19.90;99.90;;;;;;5097529;28;20664;-66
2021/06/08 06:36:47;;;;;;;17.00;15.30;;;20.10;99.90;;;;;;5109339;28;20205;-65
2021/06/08 06:39:27;;;;;;;17.20;15.47;;;20.30;99.90;;;;;;5118171;28;20531;-65
2021/06/08 06:41:56;;;;;;;15.90;14.30;;;20.60;99.90;;;;;;5105549;28;20185;-66
2021/06/08 06:44:23;;;;;;;15.50;13.90;;;20.70;99.90;;;;;;5097816;28;20689;-66
2021/06/08 06:46:52;;;;;;;16.17;14.47;;;20.80;99.90;;;;;;5102401;28;20256;-66
2021/06/08 06:49:18;;;;;;;16.87;15.17;;;20.80;99.90;;;;;;5097534;28;20173;-66
2021/06/08 06:51:45;;;;;;;16.50;14.73;;;20.90;99.90;;;;;;5107052;28;20192;-66
2021/06/08 06:54:11;;;;;;;14.65;13.15;;;21.10;99.90;;;;;;5099353;28;20325;-65
2021/06/08 06:56:38;;;;;;;16.35;13.90;;;21.30;99.90;;;;;;5108980;28;20206;-65
2021/06/08 06:59:06;;;;;;;15.95;14.35;;;21.50;99.90;;;;;;5097670;28;20174;-65
2021/06/08 07:01:32;;;;;;;17.60;15.05;;;21.60;99.90;;;;;;5102445;28;20613;-66
2021/06/08 07:04:00;;;;;;;15.33;13.83;;;21.50;99.90;;;;;;5114698;28;20580;-65
2021/06/08 07:06:28;;;;;;;15.68;14.07;;;21.60;99.90;;;;;;5109325;28;20610;-65
2021/06/08 07:08:56;;;;;;;18.42;14.70;;;21.90;99.90;;;;;;5076554;28;20204;-65
2021/06/08 07:11:24;;;;;;;17.08;15.00;;;22.10;99.90;;;;;;5097482;28;20276;-65
2021/06/08 07:13:50;;;;;;;15.65;14.02;;;22.20;99.90;;;;;;5114534;28;20230;-66
2021/06/08 07:16:18;;;;;;;16.95;13.63;;;22.20;99.90;;;;;;5111970;28;20747;-65
2021/06/08 07:18:47;;;;;;;15.40;13.80;;;22.20;99.90;;;;;;5094217;28;20169;-66
2021/06/08 07:21:14;;;;;;;19.88;15.48;;;22.30;99.90;;;;;;5111184;28;20512;-66
2021/06/08 07:23:40;;;;;;;16.33;14.65;;;22.40;99.90;;;;;;5114617;28;20184;-66
2021/06/08 07:26:06;;;;;;;16.00;14.30;;;22.30;99.90;;;;;;5098021;28;20686;-66
2021/06/08 07:28:32;;;;;;;16.38;14.40;;;22.60;99.90;;;;;;5091773;28;20184;-65
2021/06/08 07:30:59;;;;;;;16.90;15.13;;;22.80;99.90;;;;;;5107486;28;20177;-65
2021/06/08 07:33:37;;;;;;;15.80;14.25;;;23.00;99.90;;;;;;5114366;28;20201;-65
2021/06/08 07:36:10;;;;;;;15.50;13.95;;;22.90;99.90;;;;;;5099559;28;20209;-65
2021/06/08 07:38:56;;;;;;;15.00;13.52;;;23.20;99.90;;;;;;5093579;28;20166;-66
2021/06/08 07:41:51;;;;;;;15.75;13.95;;;23.50;99.90;;;;;;5109330;28;20173;-66
2021/06/08 07:44:24;;;;;;;14.45;12.90;;;23.70;99.90;;;;;;5104127;28;20213;-66
2021/06/08 07:46:51;;;;;;;15.68;14.07;;;23.70;99.90;;;;;;5099103;28;20180;-66
2021/06/08 07:49:18;;;;;;;16.27;14.27;;;23.70;99.90;;;;;;5114060;28;20173;-65
2021/06/08 07:51:45;;;;;;;16.30;12.52;;;23.70;99.90;;;;;;5095647;28;20201;-65
2021/06/08 07:54:11;;;;;;;15.43;13.70;;;23.80;99.90;;;;;;5093348;28;20538;-65
2021/06/08 07:56:38;;;;;;;14.23;12.82;;;23.90;99.90;;;;;;5109272;28;20172;-65
2021/06/08 07:59:04;;;;;;;15.60;13.98;;;24.00;99.90;;;;;;5113709;28;20705;-65
2021/06/08 08:01:30;;;;;;;15.43;13.80;;;24.10;99.90;;;;;;5098718;28;20178;-65
2021/06/08 08:03:56;;;;;;;16.15;13.85;;;24.40;99.90;;;;;;5093225;28;20355;-66
2021/06/08 08:06:24;;;;;;;16.10;14.60;;;24.60;99.90;;;;;;5105479;28;20262;-64
2021/06/08 08:08:50;;;;;;;15.85;14.23;;;24.60;99.90;;;;;;5113555;28;20161;-66
2021/06/08 08:11:18;;;;;;;15.25;13.63;;;24.60;99.90;;;;;;5101744;28;20173;-65
2021/06/08 08:13:50;;;;;;;14.48;13.15;;;24.50;99.90;;;;;;5092447;28;20208;-66
2021/06/08 08:16:17;;;;;;;14.57;12.70;;;24.60;99.90;;;;;;5103121;28;20611;-66
2021/06/08 08:18:44;;;;;;;13.65;12.00;;;24.60;99.90;;;;;;5113345;28;20157;-67
2021/06/08 08:21:13;;;;;;;13.15;11.93;;;24.50;99.90;;;;;;5103896;28;20590;-66
2021/06/08 08:23:39;;;;;;;12.43;11.07;;;24.70;99.90;;;;;;5092977;28;20235;-67
2021/06/08 08:26:07;;;;;;;10.80;9.70;;;24.90;99.90;;;;;;5099966;28;20215;-67
2021/06/08 08:28:37;;;;;;;11.25;10.07;;;25.20;99.90;;;;;;5112134;28;20172;-67
2021/06/08 08:31:11;;;;;;;11.38;10.18;;;25.20;99.90;;;;;;5106119;28;20196;-67
2021/06/08 08:33:37;;;;;;;11.07;9.88;;;25.50;99.90;;;;;;5092664;28;20193;-67
2021/06/08 08:36:03;;;;;;;10.68;9.60;;;25.70;99.90;;;;;;5098167;28;20265;-66
2021/06/08 08:38:30;;;;;;;11.40;10.32;;;25.90;99.90;;;;;;5112714;28;20192;-67
2021/06/08 08:40:57;;;;;;;13.32;11.77;;;25.90;99.90;;;;;;5095892;28;20599;-67
2021/06/08 08:43:24;;;;;;;12.90;11.70;;;25.60;99.90;;;;;;5113019;28;20180;-67
2021/06/08 08:45:51;;;;;;;12.30;11.10;;;25.50;99.90;;;;;;5097005;28;20575;-66
2021/06/08 08:48:19;;;;;;;15.57;14.15;;;25.50;99.90;;;;;;5092130;28;20555;-67
2021/06/08 08:50:46;;;;;;;12.00;10.88;;;25.50;99.90;;;;;;5106401;28;20230;-66
2021/06/08 08:53:14;;;;;;;12.82;11.63;;;25.60;99.90;;;;;;5112556;28;20249;-66
2021/06/08 08:55:41;;;;;;;12.63;11.43;;;26.00;99.90;;;;;;5099509;28;20281;-67
2021/06/08 08:58:07;;;;;;;13.00;11.73;;;26.50;99.90;;;;;;5092318;28;20184;-66
2021/06/08 09:00:34;;;;;;;13.05;11.85;;;27.10;99.90;;;;;;5102553;28;20333;-66
2021/06/08 09:03:02;;;;;;;11.88;10.77;;;27.60;99.90;;;;;;5112507;28;20176;-66
2021/06/08 09:05:34;;;;;;;13.18;11.88;;;28.00;99.90;;;;;;5102281;28;20205;-68
2021/06/08 09:08:00;;;;;;;12.55;11.30;;;28.70;99.90;;;;;;5097620;28;20188;-67
2021/06/08 09:10:25;;;;;;;11.48;10.38;;;29.50;99.90;;;;;;5095510;28;20209;-65
2021/06/08 09:12:51;;;;;;;12.98;11.65;;;30.30;99.90;;;;;;5074441;28;20201;-67
2021/06/08 09:15:17;;;;;;;10.45;9.45;;;30.70;99.90;;;;;;5091787;28;20185;-66
2021/06/08 09:17:43;;;;;;;10.75;9.85;;;30.80;99.90;;;;;;5092038;28;20176;-66
2021/06/08 09:20:13;;;;;;;10.52;9.50;;;30.80;99.90;;;;;;5091612;28;20249;-66
2021/06/08 09:22:54;;;;;;;15.13;13.73;;;31.00;99.90;;;;;;5090919;28;20178;-66
2021/06/08 09:25:41;;;;;;;14.75;13.35;;;30.30;99.90;;;;;;5090776;28;20254;-65
2021/06/08 09:28:21;;;;;;;16.35;14.68;;;29.50;99.90;;;;;;5090454;28;20165;-67
2021/06/08 09:30:59;;;;;;;15.98;14.38;;;29.20;99.90;;;;;;5091448;28;20222;-66
2021/06/08 09:33:26;;;;;;;16.13;14.52;;;28.40;99.90;;;;;;5091549;28;20224;-66
2021/06/08 09:36:12;;;;;;;16.75;13.15;;;27.80;99.90;;;;;;5091538;28;20211;-66
2021/06/08 09:39:10;;;;;;;15.43;13.80;;;27.50;99.90;;;;;;5091197;28;20212;-66
2021/06/08 09:41:43;;;;;;;13.82;12.43;;;26.90;99.90;;;;;;5071206;28;20825;-66
2021/06/08 09:44:14;;;;;;;14.25;12.65;;;26.10;99.90;;;;;;5091547;28;20272;-67
2021/06/08 09:46:48;;;;;;;12.98;11.68;;;25.90;99.90;;;;;;5091417;28;20193;-66
2021/06/08 09:49:16;;;;;;;11.93;10.75;;;26.10;99.90;;;;;;5091451;28;20169;-66
2021/06/08 09:51:59;;;;;;;14.15;12.77;;;26.40;99.90;;;;;;5091234;28;20176;-66
2021/06/08 09:54:29;;;;;;;15.57;13.15;;;26.70;99.90;;;;;;5091090;28;20200;-65
2021/06/08 09:57:21;;;;;;;13.05;11.75;;;26.90;99.90;;;;;;5091482;28;20634;-65
2021/06/08 09:59:48;;;;;;;12.82;11.52;;;27.30;99.90;;;;;;5080138;28;20189;-65
2021/06/08 10:02:43;;;;;;;13.57;12.27;;;27.20;99.90;;;;;;5091265;28;20630;-66
2021/06/08 10:05:22;;;;;;;11.35;10.15;;;27.50;99.90;;;;;;5091366;28;20224;-65
2021/06/08 10:08:00;;;;;;;11.75;10.68;;;28.20;99.90;;;;;;5091575;28;20580;-65
2021/06/08 10:10:39;;;;;;;11.95;10.77;;;28.70;99.90;;;;;;5090727;28;20169;-66
2021/06/08 10:13:07;;;;;;;14.80;13.38;;;28.90;99.90;;;;;;5091313;28;20199;-66
2021/06/08 10:15:34;;;;;;;12.82;10.88;;;29.20;99.90;;;;;;5091174;28;20304;-66
2021/06/08 10:18:04;;;;;;;13.05;11.50;;;29.40;99.90;;;;;;5094196;28;20637;-67
2021/06/08 10:20:33;;;;;;;12.00;10.90;;;29.70;99.90;;;;;;5090694;28;20178;-67
2021/06/08 10:23:10;;;;;;;10.48;9.43;;;29.30;99.90;;;;;;5091293;28;20374;-65
2021/06/08 10:25:36;;;;;;;9.75;8.95;;;29.10;99.90;;;;;;5091081;28;20697;-67
2021/06/08 10:28:02;;;;;;;9.63;8.82;;;29.00;99.90;;;;;;5091237;28;20177;-66
2021/06/08 10:30:27;;;;;;;8.02;7.30;;;28.90;99.90;;;;;;5089955;28;20169;-66
2021/06/08 10:32:53;;;;;;;10.27;9.38;;;29.00;99.90;;;;;;5094400;28;20566;-66
2021/06/08 10:37:47;;;;;;;9.02;8.23;;;28.30;99.90;;;;;;5092398;28;20212;-63
2021/06/08 10:40:13;;;;;;;10.43;8.82;;;28.50;99.90;;;;;;5094706;28;20165;-63
2021/06/08 10:42:39;;;;;;;9.10;8.40;;;28.90;99.90;;;;;;5089576;28;20201;-66
2021/06/08 10:45:07;;;;;;;10.45;9.45;;;28.70;99.90;;;;;;5074688;28;20190;-63
2021/06/08 10:47:50;;;;;;;10.23;9.32;;;28.60;99.90;;;;;;5074137;28;20655;-63
2021/06/08 10:50:24;;;;;;;9.65;8.80;;;29.10;99.90;;;;;;5074160;28;20174;-63
2021/06/08 10:52:51;;;;;;;10.18;9.38;;;29.70;99.90;;;;;;5074137;28;20194;-64
2021/06/08 10:55:18;;;;;;;10.65;9.65;;;30.00;99.90;;;;;;5074221;28;20190;-65
2021/06/08 10:57:48;;;;;;;12.75;9.82;;;30.20;99.90;;;;;;5074193;28;20537;-64
2021/06/08 11:00:26;;;;;;;10.50;9.60;;;30.30;99.90;;;;;;5073984;28;20164;-63
2021/06/08 11:03:02;;;;;;;10.15;9.15;;;30.40;99.90;;;;;;5074002;28;20487;-65
2021/06/08 11:05:46;;;;;;;9.40;8.57;;;30.30;99.90;;;;;;5073919;28;20702;-66
2021/06/08 11:08:13;;;;;;;9.50;8.60;;;30.00;99.90;;;;;;5073889;28;20185;-65
2021/06/08 11:10:42;;;;;;;8.55;7.78;;;29.10;99.90;;;;;;5073391;28;20174;-64
2021/06/08 11:13:12;;;;;;;11.77;10.35;;;29.20;99.90;;;;;;5073683;28;20198;-63
2021/06/08 11:15:46;;;;;;;11.00;10.00;;;29.30;99.90;;;;;;5074158;28;20198;-66
2021/06/08 11:18:17;;;;;;;9.93;8.80;;;29.30;99.90;;;;;;5073736;28;20174;-65
2021/06/08 11:20:43;;;;;;;11.13;10.07;;;30.10;99.90;;;;;;5073411;28;20600;-65
2021/06/08 11:23:09;;;;;;;10.02;9.13;;;30.80;99.90;;;;;;5073566;28;20193;-65
2021/06/08 11:25:42;;;;;;;10.25;9.35;;;31.10;99.90;;;;;;5073803;28;20190;-65
2021/06/08 11:28:10;;;;;;;9.73;8.82;;;31.40;99.90;;;;;;5073654;28;20261;-65
2021/06/08 11:30:53;;;;;;;9.65;8.75;;;31.50;99.90;;;;;;5073174;28;20178;-65
2021/06/08 11:33:39;;;;;;;10.00;9.00;;;31.10;99.90;;;;;;5073282;28;20205;-64
2021/06/08 11:36:23;;;;;;;10.75;9.73;;;30.60;99.90;;;;;;5073454;28;20284;-65
2021/06/08 11:38:56;;;;;;;10.73;9.73;;;29.80;99.90;;;;;;5073396;28;20182;-65
2021/06/08 11:41:23;;;;;;;9.77;8.98;;;29.40;99.90;;;;;;5073061;28;20253;-65
2021/06/08 11:43:53;;;;;;;8.80;7.95;;;29.30;99.90;;;;;;5072575;28;20185;-65
2021/06/08 11:46:28;;;;;;;9.15;8.35;;;28.90;99.90;;;;;;5073240;28;20281;-63
2021/06/08 11:49:07;;;;;;;9.52;8.75;;;28.80;99.90;;;;;;5072435;28;20185;-63
2021/06/08 11:51:39;;;;;;;11.40;10.40;;;29.00;99.90;;;;;;5072851;28;20178;-65
2021/06/08 11:54:20;;;;;;;10.18;9.23;;;28.90;99.90;;;;;;5073015;28;20178;-65
2021/06/08 11:57:34;;;;;;;9.27;8.45;;;28.80;99.90;;;;;;5073378;28;20169;-65
2021/06/08 12:00:04;;;;;;;10.15;9.20;;;29.00;99.90;;;;;;5066120;28;20186;-63
2021/06/08 12:02:46;;;;;;;11.05;10.07;;;29.00;99.90;;;;;;5072675;28;20189;-64
2021/06/08 12:05:21;;;;;;;9.82;8.98;;;29.20;99.90;;;;;;5072794;28;20206;-64
2021/06/08 12:08:02;;;;;;;11.27;10.23;;;29.10;99.90;;;;;;5073294;28;20189;-64
2021/06/08 12:10:45;;;;;;;10.32;9.43;;;28.80;99.90;;;;;;5072321;28;20268;-63
2021/06/08 12:13:12;;;;;;;11.13;10.13;;;28.70;99.90;;;;;;5072759;28;20205;-64
2021/06/08 12:15:50;;;;;;;10.80;9.77;;;29.00;99.90;;;;;;5072749;28;20609;-64
2021/06/08 12:18:23;;;;;;;10.00;9.07;;;29.30;99.90;;;;;;5072493;28;20261;-64
2021/06/08 12:20:50;;;;;;;10.50;9.60;;;29.20;99.90;;;;;;5072444;28;20584;-64
2021/06/08 12:23:30;;;;;;;9.85;9.05;;;29.10;99.90;;;;;;5072439;28;20521;-64
2021/06/08 12:26:26;;;;;;;10.65;9.68;;;29.30;99.90;;;;;;5072591;28;20744;-64
2021/06/08 12:29:05;;;;;;;11.93;10.82;;;29.10;99.90;;;;;;5072474;28;20181;-64
2021/06/08 12:31:31;;;;;;;10.80;9.80;;;29.60;99.90;;;;;;5072279;28;20182;-64
2021/06/08 12:33:58;;;;;;;10.85;9.82;;;29.20;99.90;;;;;;5072394;28;20210;-64
2021/06/08 12:36:24;;;;;;;10.13;9.23;;;29.20;99.90;;;;;;5072077;28;20229;-63
2021/06/08 12:38:57;;;;;;;10.60;9.68;;;29.60;99.90;;;;;;5072282;28;20218;-64
2021/06/08 12:41:28;;;;;;;10.50;9.50;;;30.00;99.90;;;;;;5071883;28;20174;-64
2021/06/08 12:43:56;;;;;;;9.50;8.63;;;31.50;99.90;;;;;;5071382;28;20546;-64